Time;durP1;ratioP1;P1;durP2;ratioP2;P2;SDS_P1;SDS_P2;PMS_P1;PMS_P2;Temp;Humidity;BMP_temperature;BMP_pressure;BME280_temperature;BME280_humidity;BME280_pressure;Samples;Min_cycle;Max_cycle;Signal;HPM_P1;HPM_P2
2022/07/01 00:01:40;;;;;;;7.80;6.25;;;;;;;;;;1707644;82;21141;-69
2022/07/01 00:04:06;;;;;;;7.55;6.20;;;;;;;;;;1714969;82;21077;-69
2022/07/01 00:06:33;;;;;;;8.40;7.60;;;;;;;;;;1725558;82;21029;-69
2022/07/01 00:08:59;;;;;;;8.28;6.70;;;;;;;;;;1745254;82;21563;-69
2022/07/01 00:11:25;;;;;;;7.53;6.45;;;;;;;;;;1711420;84;21462;-69
2022/07/01 00:13:52;;;;;;;8.08;6.25;;;;;;;;;;1720236;82;21061;-69
2022/07/01 00:16:18;;;;;;;7.03;6.33;;;;;;;;;;1723755;82;21112;-69
2022/07/01 00:18:44;;;;;;;10.28;6.95;;;;;;;;;;1719356;82;21065;-69
2022/07/01 00:21:12;;;;;;;9.63;6.72;;;;;;;;;;1714442;84;21557;-69
2022/07/01 00:23:38;;;;;;;8.63;7.62;;;;;;;;;;1719700;82;21521;-69
2022/07/01 00:26:04;;;;;;;7.00;6.30;;;;;;;;;;1728224;82;21052;-69
2022/07/01 00:28:30;;;;;;;8.98;6.05;;;;;;;;;;1729063;82;21112;-69
2022/07/01 00:30:57;;;;;;;7.20;6.05;;;;;;;;;;1727094;82;21044;-69
2022/07/01 00:33:23;;;;;;;9.03;6.80;;;;;;;;;;1715064;82;21088;-69
2022/07/01 00:35:49;;;;;;;7.33;6.35;;;;;;;;;;1741455;82;21073;-70
2022/07/01 00:38:15;;;;;;;8.88;6.22;;;;;;;;;;1714968;82;21035;-69
2022/07/01 00:40:42;;;;;;;8.33;6.10;;;;;;;;;;1712417;84;21111;-69
2022/07/01 00:43:08;;;;;;;7.35;6.20;;;;;;;;;;1712358;84;21539;-69
2022/07/01 00:45:35;;;;;;;8.83;7.37;;;;;;;;;;1712877;82;21519;-70
2022/07/01 00:48:01;;;;;;;6.70;5.87;;;;;;;;;;1725156;82;21083;-70
2022/07/01 00:50:28;;;;;;;7.72;6.03;;;;;;;;;;1712013;84;21115;-70
2022/07/01 00:52:54;;;;;;;6.67;5.75;;;;;;;;;;1713671;82;21104;-70
2022/07/01 00:55:20;;;;;;;7.95;6.53;;;;;;;;;;1735621;82;21009;-68
2022/07/01 00:57:46;;;;;;;9.08;7.53;;;;;;;;;;1723576;82;21084;-68
2022/07/01 01:00:13;;;;;;;8.18;6.42;;;;;;;;;;1736076;82;21026;-68
2022/07/01 01:05:21;;;;;;;9.28;6.85;;;;;;;;;;1690525;80;73646;-70
2022/07/01 01:07:49;;;;;;;8.30;6.30;;;;;;;;;;1719008;83;21017;-69
2022/07/01 01:10:16;;;;;;;7.58;6.87;;;;;;;;;;1718795;83;21044;-69
2022/07/01 01:12:42;;;;;;;8.68;7.78;;;;;;;;;;1721023;83;22073;-69
2022/07/01 01:15:10;;;;;;;7.30;6.30;;;;;;;;;;1723369;82;21060;-69
2022/07/01 01:17:37;;;;;;;9.80;6.85;;;;;;;;;;1723615;83;21543;-70
2022/07/01 01:20:04;;;;;;;6.78;5.80;;;;;;;;;;1693877;83;21021;-70
2022/07/01 01:22:30;;;;;;;7.42;6.10;;;;;;;;;;1722555;83;21064;-70
2022/07/01 01:24:57;;;;;;;7.37;6.17;;;;;;;;;;1739431;82;21603;-69
2022/07/01 01:27:23;;;;;;;8.98;7.12;;;;;;;;;;1715707;83;20991;-70
2022/07/01 01:29:49;;;;;;;9.08;7.08;;;;;;;;;;1722933;83;21042;-70
2022/07/01 01:32:15;;;;;;;8.40;6.80;;;;;;;;;;1722993;83;21173;-70
2022/07/01 01:34:42;;;;;;;8.63;7.12;;;;;;;;;;1723129;82;21502;-69
2022/07/01 01:37:08;;;;;;;7.58;6.70;;;;;;;;;;1724151;83;21108;-69
2022/07/01 01:39:37;;;;;;;8.08;7.25;;;;;;;;;;1723940;83;21568;-70
2022/07/01 01:42:04;;;;;;;8.05;6.87;;;;;;;;;;1722065;83;21056;-70
2022/07/01 01:44:30;;;;;;;8.98;6.85;;;;;;;;;;1723829;82;21045;-69
2022/07/01 01:46:56;;;;;;;10.20;7.30;;;;;;;;;;1689759;85;21023;-69
2022/07/01 01:49:22;;;;;;;8.33;7.45;;;;;;;;;;1723930;83;21050;-70
2022/07/01 01:51:48;;;;;;;9.03;6.87;;;;;;;;;;1723368;83;21048;-69
2022/07/01 01:54:14;;;;;;;8.85;7.22;;;;;;;;;;1724420;82;21063;-69
2022/07/01 01:56:40;;;;;;;9.73;7.37;;;;;;;;;;1689671;85;21574;-68
2022/07/01 01:59:06;;;;;;;7.95;6.87;;;;;;;;;;1724061;83;21070;-68
2022/07/01 02:01:33;;;;;;;7.83;6.75;;;;;;;;;;1720838;83;21060;-68
2022/07/01 02:03:59;;;;;;;7.97;6.83;;;;;;;;;;1735952;81;21090;-68
2022/07/01 02:06:26;;;;;;;9.15;7.80;;;;;;;;;;1720305;82;21075;-68
2022/07/01 02:08:52;;;;;;;9.45;8.28;;;;;;;;;;1753872;82;21062;-69
2022/07/01 02:11:18;;;;;;;9.98;7.50;;;;;;;;;;1731108;82;21571;-69
2022/07/01 02:13:44;;;;;;;8.63;7.12;;;;;;;;;;1718954;83;21047;-69
2022/07/01 02:16:11;;;;;;;9.08;6.83;;;;;;;;;;1743926;82;21586;-70
2022/07/01 02:18:38;;;;;;;10.35;7.25;;;;;;;;;;1740825;82;21534;-68
2022/07/01 02:21:04;;;;;;;10.05;8.10;;;;;;;;;;1753754;82;21065;-69
2022/07/01 02:23:30;;;;;;;8.88;7.53;;;;;;;;;;1720647;82;21112;-69
2022/07/01 02:25:57;;;;;;;8.95;7.67;;;;;;;;;;1728878;83;21029;-69
2022/07/01 02:28:23;;;;;;;7.78;6.97;;;;;;;;;;1684370;85;21081;-69
2022/07/01 02:30:49;;;;;;;10.23;9.05;;;;;;;;;;1731480;83;21553;-68
2022/07/01 02:33:15;;;;;;;10.40;9.15;;;;;;;;;;1718055;82;21025;-69
2022/07/01 02:35:41;;;;;;;11.68;7.97;;;;;;;;;;1719106;82;21017;-70
2022/07/01 02:38:08;;;;;;;10.23;8.03;;;;;;;;;;1731715;83;21077;-69
2022/07/01 02:40:37;;;;;;;9.68;8.00;;;;;;;;;;1719782;82;21068;-69
2022/07/01 02:43:03;;;;;;;10.30;8.00;;;;;;;;;;1740612;82;21071;-69
2022/07/01 02:45:29;;;;;;;11.68;7.55;;;;;;;;;;1729669;81;21061;-69
2022/07/01 02:47:55;;;;;;;13.70;8.13;;;;;;;;;;1736416;82;21456;-69
2022/07/01 02:50:21;;;;;;;12.43;9.55;;;;;;;;;;1754155;81;21055;-68
2022/07/01 02:52:48;;;;;;;10.70;8.25;;;;;;;;;;1736325;82;21520;-68
2022/07/01 02:55:14;;;;;;;15.60;8.18;;;;;;;;;;1730775;82;21528;-69
2022/07/01 02:57:40;;;;;;;10.88;8.10;;;;;;;;;;1712979;84;21044;-69
2022/07/01 03:00:07;;;;;;;8.20;7.33;;;;;;;;;;1691623;84;21574;-69
2022/07/01 03:02:34;;;;;;;9.05;7.45;;;;;;;;;;1730355;82;21843;-68
2022/07/01 03:05:00;;;;;;;12.33;9.08;;;;;;;;;;1707869;82;21113;-68
2022/07/01 03:07:26;;;;;;;9.83;7.50;;;;;;;;;;1754561;82;21033;-68
2022/07/01 03:09:53;;;;;;;9.55;7.58;;;;;;;;;;1757112;82;21030;-68
2022/07/01 03:12:25;;;;;;;9.25;7.17;;;;;;;;;;1757423;82;21050;-69
2022/07/01 03:14:52;;;;;;;9.40;7.55;;;;;;;;;;1754021;82;20991;-68
2022/07/01 03:17:18;;;;;;;9.93;8.93;;;;;;;;;;1749082;82;21042;-68
2022/07/01 03:19:45;;;;;;;10.98;9.50;;;;;;;;;;1724172;83;21091;-69
2022/07/01 03:22:11;;;;;;;10.68;9.58;;;;;;;;;;1724241;83;21095;-68
2022/07/01 03:24:37;;;;;;;9.60;6.87;;;;;;;;;;1729081;82;21085;-68
2022/07/01 03:27:03;;;;;;;10.43;6.90;;;;;;;;;;1749496;82;21073;-69
2022/07/01 03:29:30;;;;;;;9.95;7.62;;;;;;;;;;1728709;82;21020;-69
2022/07/01 03:31:56;;;;;;;9.35;7.60;;;;;;;;;;1756309;82;21119;-69
2022/07/01 03:34:22;;;;;;;9.13;7.30;;;;;;;;;;1753754;82;21057;-69
2022/07/01 03:36:48;;;;;;;11.00;9.15;;;;;;;;;;1724372;83;21072;-69
2022/07/01 03:39:14;;;;;;;12.18;8.45;;;;;;;;;;1723865;82;21523;-70
2022/07/01 03:41:40;;;;;;;11.88;9.03;;;;;;;;;;1731844;82;21060;-69
2022/07/01 03:44:07;;;;;;;11.22;10.03;;;;;;;;;;1757462;82;21117;-69
2022/07/01 03:46:35;;;;;;;14.05;9.28;;;;;;;;;;1752034;82;21498;-69
2022/07/01 03:49:04;;;;;;;11.97;8.53;;;;;;;;;;1736782;82;21061;-69
2022/07/01 03:51:30;;;;;;;10.82;9.33;;;;;;;;;;1775956;80;21098;-69
2022/07/01 03:56:41;;;;;;;10.78;9.73;;;;;;;;;;1724154;83;21544;-69
2022/07/01 03:59:08;;;;;;;9.98;8.10;;;;;;;;;;1744796;82;20989;-69
2022/07/01 04:01:35;;;;;;;11.68;10.00;;;;;;;;;;1735087;82;21055;-68
2022/07/01 04:04:00;;;;;;;9.38;8.20;;;;;;;;;;1747764;82;21308;-69
2022/07/01 04:06:27;;;;;;;8.60;7.65;;;;;;;;;;1753962;82;21066;-69
2022/07/01 04:08:53;;;;;;;11.70;9.85;;;;;;;;;;1732771;82;21018;-69
2022/07/01 04:11:19;;;;;;;10.70;9.60;;;;;;;;;;1720965;82;21080;-70
2022/07/01 04:13:50;;;;;;;9.08;7.90;;;;;;;;;;1716752;82;21632;-69
2022/07/01 04:16:14;;;;;;;9.70;8.15;;;;;;;;;;1717031;83;21059;-68
2022/07/01 04:18:42;;;;;;;11.25;9.63;;;;;;;;;;1719664;82;21707;-69
2022/07/01 04:23:53;;;;;;;8.33;7.42;;;;;;;;;;1727818;82;21528;-69
2022/07/01 04:26:19;;;;;;;11.18;8.30;;;;;;;;;;1734294;82;21593;-69
2022/07/01 04:28:46;;;;;;;9.53;8.38;;;;;;;;;;1691673;84;21597;-69
2022/07/01 04:31:13;;;;;;;10.20;9.20;;;;;;;;;;1727885;82;21064;-69
2022/07/01 04:33:40;;;;;;;7.87;7.05;;;;;;;;;;1744645;82;21030;-72
2022/07/01 04:36:08;;;;;;;10.50;7.35;;;;;;;;;;1737231;82;20985;-70
2022/07/01 04:38:35;;;;;;;10.25;8.18;;;;;;;;;;1682068;83;21076;-69
2022/07/01 04:43:45;;;;;;;9.88;7.83;;;;;;;;;;1726639;82;21468;-67
2022/07/01 04:46:11;;;;;;;11.00;8.33;;;;;;;;;;1714422;82;21037;-68
2022/07/01 04:48:38;;;;;;;11.12;8.13;;;;;;;;;;1737363;82;21060;-69
2022/07/01 04:51:04;;;;;;;10.03;7.87;;;;;;;;;;1724862;82;21339;-69
2022/07/01 04:53:30;;;;;;;10.60;9.40;;;;;;;;;;1719279;82;21025;-69
2022/07/01 04:55:57;;;;;;;9.33;7.50;;;;;;;;;;1720273;82;21520;-69
2022/07/01 04:58:23;;;;;;;11.12;7.67;;;;;;;;;;1735650;82;21076;-67
2022/07/01 05:00:49;;;;;;;9.58;7.97;;;;;;;;;;1732496;82;21525;-68
2022/07/01 05:03:16;;;;;;;10.78;8.95;;;;;;;;;;1723115;82;21577;-68
2022/07/01 05:05:43;;;;;;;7.75;6.70;;;;;;;;;;1737272;82;21088;-69
2022/07/01 05:08:09;;;;;;;10.25;7.08;;;;;;;;;;1684477;85;21076;-69
2022/07/01 05:10:35;;;;;;;8.88;8.08;;;;;;;;;;1727674;82;21178;-69
2022/07/01 05:13:02;;;;;;;8.95;7.30;;;;;;;;;;1735324;82;20982;-69
2022/07/01 05:15:28;;;;;;;7.92;7.12;;;;;;;;;;1719535;82;21048;-69
2022/07/01 05:23:24;;;;;;;8.70;6.62;;;;;;;;;;1717540;83;21530;-69
2022/07/01 05:25:50;;;;;;;7.72;6.92;;;;;;;;;;1717318;83;21044;-69
2022/07/01 05:28:16;;;;;;;8.55;6.10;;;;;;;;;;1717484;83;20996;-69
2022/07/01 05:30:42;;;;;;;6.15;5.20;;;;;;;;;;1727636;82;21601;-69
2022/07/01 05:33:08;;;;;;;6.87;5.30;;;;;;;;;;1753951;82;21069;-69
2022/07/01 05:35:35;;;;;;;7.65;5.60;;;;;;;;;;1727941;82;21126;-69
2022/07/01 05:38:01;;;;;;;6.30;5.12;;;;;;;;;;1724798;82;21041;-69
2022/07/01 05:40:27;;;;;;;5.42;4.37;;;;;;;;;;1722461;82;21079;-69
2022/07/01 05:42:53;;;;;;;5.10;4.60;;;;;;;;;;1725236;82;21057;-68
2022/07/01 05:45:19;;;;;;;5.75;4.70;;;;;;;;;;1720636;82;21047;-69
2022/07/01 05:47:46;;;;;;;6.25;4.58;;;;;;;;;;1717907;83;21021;-68
2022/07/01 05:50:12;;;;;;;4.85;3.95;;;;;;;;;;1726069;82;21066;-69
2022/07/01 05:52:39;;;;;;;7.03;5.10;;;;;;;;;;1717833;82;21056;-69
2022/07/01 05:55:06;;;;;;;6.65;4.62;;;;;;;;;;1713417;82;21055;-69
2022/07/01 05:57:33;;;;;;;6.25;5.12;;;;;;;;;;1688869;83;21498;-69
2022/07/01 05:59:59;;;;;;;8.73;5.50;;;;;;;;;;1727909;82;21555;-67
2022/07/01 06:02:25;;;;;;;5.40;4.78;;;;;;;;;;1692538;83;21330;-68
2022/07/01 06:04:51;;;;;;;5.80;5.20;;;;;;;;;;1715955;82;21036;-70
2022/07/01 06:07:17;;;;;;;8.63;5.10;;;;;;;;;;1710850;83;22141;-69
2022/07/01 06:09:43;;;;;;;8.60;5.37;;;;;;;;;;1715603;82;21032;-69
2022/07/01 06:12:56;;;;;;;5.97;4.83;;;;;;;;;;1802315;79;23206;-71
2022/07/01 06:15:23;;;;;;;6.58;4.97;;;;;;;;;;1786789;80;21004;-72
2022/07/01 06:17:51;;;;;;;6.30;5.20;;;;;;;;;;1763985;80;21099;-72
2022/07/01 06:20:18;;;;;;;5.53;5.00;;;;;;;;;;1787723;79;21024;-70
2022/07/01 06:22:45;;;;;;;5.37;4.87;;;;;;;;;;1762968;79;21084;-71
2022/07/01 06:25:11;;;;;;;5.67;4.67;;;;;;;;;;1771768;80;21035;-71
2022/07/01 06:27:40;;;;;;;5.85;4.80;;;;;;;;;;1787068;79;21028;-72
2022/07/01 06:30:08;;;;;;;5.03;4.53;;;;;;;;;;1792778;80;21116;-72
2022/07/01 06:32:34;;;;;;;6.55;5.47;;;;;;;;;;1779715;80;20961;-70
2022/07/01 06:35:00;;;;;;;5.87;5.22;;;;;;;;;;1785785;80;20969;-72
2022/07/01 06:37:25;;;;;;;8.00;5.65;;;;;;;;;;1774211;79;20973;-72
2022/07/01 06:39:51;;;;;;;6.97;5.30;;;;;;;;;;1791455;80;20964;-72
2022/07/01 06:42:17;;;;;;;5.72;5.12;;;;;;;;;;1778259;80;21036;-72
2022/07/01 06:44:44;;;;;;;6.03;4.50;;;;;;;;;;1789453;80;20969;-72
2022/07/01 06:47:10;;;;;;;6.30;4.50;;;;;;;;;;1780175;80;20996;-70
2022/07/01 06:49:37;;;;;;;6.17;4.90;;;;;;;;;;1788629;80;21044;-70
2022/07/01 06:52:05;;;;;;;6.78;5.10;;;;;;;;;;1784026;80;20969;-69
2022/07/01 06:54:31;;;;;;;5.40;4.90;;;;;;;;;;1776864;79;21050;-70
2022/07/01 06:56:57;;;;;;;5.45;4.95;;;;;;;;;;1787336;79;20994;-70
2022/07/01 06:59:23;;;;;;;7.95;5.75;;;;;;;;;;1774762;79;21001;-69
2022/07/01 07:01:49;;;;;;;4.92;4.42;;;;;;;;;;1776532;80;21017;-71
2022/07/01 07:04:16;;;;;;;6.50;4.42;;;;;;;;;;1738901;80;21019;-70
2022/07/01 07:06:43;;;;;;;6.80;4.95;;;;;;;;;;1745533;80;21559;-70
2022/07/01 07:09:09;;;;;;;5.72;5.12;;;;;;;;;;1747668;80;21014;-71
2022/07/01 07:11:34;;;;;;;8.98;5.08;;;;;;;;;;1746814;80;21029;-72
2022/07/01 07:14:00;;;;;;;11.33;6.35;;;;;;;;;;1744634;80;21174;-70
2022/07/01 07:16:27;;;;;;;59.10;53.28;;;;;;;;;;1753890;81;21130;-72
2022/07/01 07:18:53;;;;;;;26.75;23.85;;;;;;;;;;1756469;82;21487;-72
2022/07/01 07:21:20;;;;;;;16.32;14.68;;;;;;;;;;1756165;80;21502;-70
2022/07/01 07:23:45;;;;;;;8.83;6.75;;;;;;;;;;1754923;81;22055;-73
2022/07/01 07:26:12;;;;;;;5.78;5.17;;;;;;;;;;1755874;82;21053;-74
2022/07/01 07:28:38;;;;;;;7.50;5.50;;;;;;;;;;1754414;81;21067;-73
2022/07/01 07:31:04;;;;;;;5.47;4.95;;;;;;;;;;1739158;81;21499;-73
2022/07/01 07:33:30;;;;;;;5.30;4.80;;;;;;;;;;1749155;81;21044;-75
2022/07/01 07:35:56;;;;;;;6.17;5.50;;;;;;;;;;1753973;81;21014;-73
2022/07/01 07:38:22;;;;;;;8.55;5.42;;;;;;;;;;1751488;82;21134;-71
2022/07/01 07:40:48;;;;;;;5.05;4.47;;;;;;;;;;1755389;82;21000;-71
2022/07/01 07:43:14;;;;;;;5.87;4.75;;;;;;;;;;1754256;81;21028;-72
2022/07/01 07:45:41;;;;;;;19.92;17.00;;;;;;;;;;1753760;81;21050;-73
2022/07/01 07:48:09;;;;;;;34.83;29.90;;;;;;;;;;1755574;81;21029;-74
2022/07/01 07:50:36;;;;;;;10.65;9.60;;;;;;;;;;1755371;82;21722;-73
2022/07/01 07:53:02;;;;;;;6.60;5.92;;;;;;;;;;1755624;82;21012;-74
2022/07/01 07:55:28;;;;;;;6.03;5.33;;;;;;;;;;1756164;81;21117;-74
2022/07/01 07:57:55;;;;;;;6.00;5.40;;;;;;;;;;1755762;81;21514;-74
2022/07/01 08:00:21;;;;;;;4.42;3.83;;;;;;;;;;1754165;80;21026;-74
2022/07/01 08:02:47;;;;;;;5.20;4.50;;;;;;;;;;1749290;80;21127;-74
2022/07/01 08:05:13;;;;;;;5.40;4.65;;;;;;;;;;1719618;82;21002;-74
2022/07/01 08:07:40;;;;;;;5.65;5.15;;;;;;;;;;1690706;83;21054;-74
2022/07/01 08:10:08;;;;;;;6.62;5.50;;;;;;;;;;1712158;84;21128;-72
2022/07/01 08:12:34;;;;;;;6.12;5.40;;;;;;;;;;1749400;81;21443;-72
2022/07/01 08:15:00;;;;;;;5.92;5.25;;;;;;;;;;1733843;82;20989;-72
2022/07/01 08:17:26;;;;;;;5.62;5.12;;;;;;;;;;1741931;82;20993;-73
2022/07/01 08:19:52;;;;;;;5.65;5.05;;;;;;;;;;1737142;82;20968;-72
2022/07/01 08:22:18;;;;;;;9.00;5.87;;;;;;;;;;1738133;81;21031;-71
2022/07/01 08:24:44;;;;;;;6.35;5.75;;;;;;;;;;1744602;82;21033;-71
2022/07/01 08:27:12;;;;;;;5.92;5.40;;;;;;;;;;1741556;82;21526;-70
2022/07/01 08:29:39;;;;;;;5.72;5.20;;;;;;;;;;1741352;81;21058;-71
2022/07/01 08:32:06;;;;;;;6.92;5.50;;;;;;;;;;1748044;81;21622;-71
2022/07/01 08:34:32;;;;;;;6.37;5.78;;;;;;;;;;1745219;81;20982;-72
2022/07/01 08:36:58;;;;;;;5.87;5.08;;;;;;;;;;1745696;82;21539;-71
2022/07/01 08:39:24;;;;;;;7.92;5.72;;;;;;;;;;1748236;82;20969;-73
2022/07/01 08:41:50;;;;;;;7.78;5.53;;;;;;;;;;1747543;82;21501;-72
2022/07/01 08:44:16;;;;;;;6.78;5.92;;;;;;;;;;1746137;81;20974;-72
2022/07/01 08:46:43;;;;;;;9.18;6.60;;;;;;;;;;1711951;84;21064;-73
2022/07/01 08:49:09;;;;;;;7.90;5.53;;;;;;;;;;1698295;83;21116;-72
2022/07/01 08:51:35;;;;;;;8.75;6.33;;;;;;;;;;1712349;83;21109;-72
2022/07/01 08:54:01;;;;;;;10.28;6.05;;;;;;;;;;1712158;84;21461;-73
2022/07/01 08:56:46;;;;;;;11.35;5.90;;;;;;;;;;1712119;83;21509;-72
2022/07/01 08:59:13;;;;;;;7.20;5.62;;;;;;;;;;1697865;83;21007;-70
2022/07/01 09:01:39;;;;;;;6.12;5.15;;;;;;;;;;1715883;82;21090;-72
2022/07/01 09:04:20;;;;;;;7.58;5.90;;;;;;;;;;1692226;84;21070;-71
2022/07/01 09:06:47;;;;;;;11.10;6.47;;;;;;;;;;1699350;84;21098;-73
2022/07/01 09:09:14;;;;;;;6.65;5.78;;;;;;;;;;1684340;84;21543;-73
2022/07/01 09:11:53;;;;;;;12.95;11.30;;;;;;;;;;1699287;84;21121;-70
2022/07/01 09:14:15;;;;;;;11.73;10.50;;;;;;;;;;1755533;82;21005;-70
2022/07/01 09:16:44;;;;;;;14.23;12.68;;;;;;;;;;1756577;82;21080;-72
2022/07/01 09:19:11;;;;;;;6.58;5.97;;;;;;;;;;1756452;82;21095;-72
2022/07/01 09:21:37;;;;;;;6.92;5.60;;;;;;;;;;1755606;80;21053;-71
2022/07/01 09:24:04;;;;;;;6.55;5.30;;;;;;;;;;1756440;82;21023;-72
2022/07/01 09:26:30;;;;;;;9.85;6.20;;;;;;;;;;1755902;82;21550;-78
2022/07/01 09:28:57;;;;;;;11.12;5.90;;;;;;;;;;1753707;82;21026;-74
2022/07/01 09:31:34;;;;;;;8.85;5.53;;;;;;;;;;1755447;82;21088;-73
2022/07/01 09:34:05;;;;;;;8.63;5.45;;;;;;;;;;1755103;80;21013;-73
2022/07/01 09:36:32;;;;;;;7.85;5.50;;;;;;;;;;1728048;81;21119;-72
2022/07/01 09:39:00;;;;;;;6.58;5.87;;;;;;;;;;1748308;81;21023;-73
2022/07/01 09:41:26;;;;;;;6.33;5.42;;;;;;;;;;1747689;82;22431;-74
2022/07/01 09:43:51;;;;;;;6.75;4.97;;;;;;;;;;1754325;81;21034;-73
2022/07/01 09:46:18;;;;;;;6.50;5.30;;;;;;;;;;1754478;81;21072;-72
2022/07/01 09:48:45;;;;;;;5.33;4.83;;;;;;;;;;1752686;81;20977;-72
2022/07/01 09:51:11;;;;;;;5.80;4.90;;;;;;;;;;1752669;81;21032;-73
2022/07/01 09:53:38;;;;;;;109.15;98.65;;;;;;;;;;1753351;81;21029;-82
2022/07/01 09:56:04;;;;;;;83.37;74.77;;;;;;;;;;1767923;81;20962;-81
2022/07/01 09:58:32;;;;;;;16.27;14.58;;;;;;;;;;1767236;81;22461;-80
2022/07/01 10:01:02;;;;;;;6.47;5.78;;;;;;;;;;1768253;81;20989;-74
2022/07/01 10:03:29;;;;;;;5.78;5.17;;;;;;;;;;1761003;81;21035;-76
2022/07/01 10:05:59;;;;;;;5.90;5.30;;;;;;;;;;1767407;81;21029;-75
2022/07/01 10:08:30;;;;;;;7.42;5.20;;;;;;;;;;1724227;81;20978;-75
2022/07/01 10:11:15;;;;;;;6.05;5.10;;;;;;;;;;1768625;81;21064;-75
2022/07/01 10:13:41;;;;;;;5.47;4.90;;;;;;;;;;1765022;81;21526;-77
2022/07/01 10:16:08;;;;;;;6.50;5.42;;;;;;;;;;1761787;80;21070;-74
2022/07/01 10:18:34;;;;;;;6.00;5.37;;;;;;;;;;1773196;81;21050;-75
2022/07/01 10:21:02;;;;;;;6.58;4.45;;;;;;;;;;1775208;81;21030;-76
2022/07/01 10:23:30;;;;;;;5.22;4.60;;;;;;;;;;1774692;81;21041;-75
2022/07/01 10:26:03;;;;;;;5.80;5.10;;;;;;;;;;1746476;81;20967;-75
2022/07/01 10:28:31;;;;;;;5.50;4.85;;;;;;;;;;1775228;81;21146;-76
2022/07/01 10:31:02;;;;;;;5.10;4.45;;;;;;;;;;1771116;80;21005;-74
2022/07/01 10:33:40;;;;;;;4.78;4.28;;;;;;;;;;1767654;81;21356;-77
2022/07/01 10:36:11;;;;;;;6.55;4.70;;;;;;;;;;1737303;81;21068;-78
2022/07/01 10:38:56;;;;;;;5.33;4.65;;;;;;;;;;1773014;80;21049;-76
2022/07/01 10:41:24;;;;;;;4.72;4.22;;;;;;;;;;1768909;80;21032;-77
2022/07/01 10:43:50;;;;;;;4.92;4.22;;;;;;;;;;1766306;80;21028;-82
2022/07/01 10:46:35;;;;;;;6.10;4.12;;;;;;;;;;1760813;80;20980;-86
2022/07/01 10:49:01;;;;;;;4.30;3.90;;;;;;;;;;1772207;80;21006;-76
2022/07/01 10:51:29;;;;;;;8.10;4.10;;;;;;;;;;1769033;81;21005;-76
2022/07/01 10:53:55;;;;;;;16.52;14.68;;;;;;;;;;1772723;81;21414;-83
2022/07/01 10:56:22;;;;;;;9.13;6.97;;;;;;;;;;1774232;81;21143;-84
2022/07/01 10:58:48;;;;;;;7.72;4.70;;;;;;;;;;1743476;80;20996;-83
2022/07/01 11:01:14;;;;;;;4.10;3.70;;;;;;;;;;1745413;81;21086;-81
2022/07/01 11:03:40;;;;;;;6.20;4.10;;;;;;;;;;1742200;81;21158;-82
2022/07/01 11:06:07;;;;;;;4.22;3.80;;;;;;;;;;1771487;81;20989;-84
2022/07/01 11:08:33;;;;;;;5.50;3.27;;;;;;;;;;1773325;80;21544;-81
2022/07/01 11:11:01;;;;;;;4.72;3.22;;;;;;;;;;1774339;81;21089;-86
2022/07/01 11:13:28;;;;;;;3.52;3.22;;;;;;;;;;1763556;80;21146;-72
2022/07/01 11:15:53;;;;;;;4.80;3.42;;;;;;;;;;1738033;81;21011;-72
2022/07/01 11:18:20;;;;;;;6.85;4.10;;;;;;;;;;1740285;81;21014;-73
2022/07/01 11:20:46;;;;;;;6.47;4.08;;;;;;;;;;1763547;81;21057;-70
2022/07/01 11:23:14;;;;;;;7.22;4.40;;;;;;;;;;1759423;80;21508;-73
2022/07/01 11:25:41;;;;;;;3.90;3.50;;;;;;;;;;1761913;81;21505;-72
2022/07/01 11:28:07;;;;;;;6.00;4.10;;;;;;;;;;1757313;81;21549;-76
2022/07/01 11:30:33;;;;;;;7.17;4.97;;;;;;;;;;1765995;81;21021;-74
2022/07/01 11:32:59;;;;;;;5.17;4.15;;;;;;;;;;1762841;81;21556;-73
2022/07/01 11:40:57;;;;;;;11.18;4.20;;;;;;;;;;1757462;81;21056;-75
2022/07/01 11:43:24;;;;;;;5.55;3.70;;;;;;;;;;1763130;81;20973;-75
2022/07/01 11:45:51;;;;;;;12.30;4.22;;;;;;;;;;1760105;81;21068;-74
2022/07/01 11:48:31;;;;;;;4.85;3.67;;;;;;;;;;1755171;81;21520;-74
2022/07/01 11:50:58;;;;;;;5.65;3.90;;;;;;;;;;1761721;81;21072;-74
2022/07/01 11:53:24;;;;;;;4.30;3.90;;;;;;;;;;1760993;80;21536;-74
2022/07/01 11:55:50;;;;;;;7.53;4.30;;;;;;;;;;1764894;81;21501;-73
2022/07/01 11:58:16;;;;;;;4.85;3.80;;;;;;;;;;1766086;81;21034;-76
2022/07/01 12:00:43;;;;;;;5.25;4.30;;;;;;;;;;1765331;80;21033;-76
2022/07/01 12:03:10;;;;;;;5.08;4.58;;;;;;;;;;1760531;81;21552;-75
2022/07/01 12:05:37;;;;;;;7.97;7.10;;;;;;;;;;1749815;81;21096;-71
2022/07/01 12:08:03;;;;;;;15.03;13.38;;;;;;;;;;1758945;81;21045;-72
2022/07/01 12:10:29;;;;;;;6.40;5.80;;;;;;;;;;1760326;81;21005;-72
2022/07/01 12:12:55;;;;;;;5.12;4.10;;;;;;;;;;1752064;80;21030;-74
2022/07/01 12:15:22;;;;;;;5.10;3.98;;;;;;;;;;1738225;81;21012;-75
2022/07/01 12:17:48;;;;;;;4.35;3.95;;;;;;;;;;1738954;81;21053;-75
2022/07/01 12:20:16;;;;;;;4.87;3.72;;;;;;;;;;1752764;80;21014;-75
2022/07/01 12:22:43;;;;;;;5.25;3.87;;;;;;;;;;1742675;81;20982;-76
2022/07/01 12:25:10;;;;;;;5.05;3.58;;;;;;;;;;1759267;81;21095;-71
2022/07/01 12:27:38;;;;;;;5.45;3.87;;;;;;;;;;1739838;81;21467;-72
2022/07/01 12:30:05;;;;;;;3.83;3.37;;;;;;;;;;1760472;81;21085;-71
2022/07/01 12:32:34;;;;;;;4.78;3.72;;;;;;;;;;1758086;80;21020;-70
2022/07/01 12:35:00;;;;;;;4.17;3.77;;;;;;;;;;1763331;81;20974;-73
2022/07/01 12:37:34;;;;;;;5.25;3.60;;;;;;;;;;1754272;81;20985;-72
2022/07/01 12:40:05;;;;;;;4.42;3.45;;;;;;;;;;1758800;81;21084;-71
2022/07/01 12:42:40;;;;;;;6.87;3.60;;;;;;;;;;1749525;81;21587;-71
2022/07/01 12:45:08;;;;;;;4.53;3.40;;;;;;;;;;1761492;81;21483;-70
2022/07/01 12:47:35;;;;;;;4.58;3.67;;;;;;;;;;1753893;81;20982;-72
2022/07/01 12:50:08;;;;;;;4.37;3.98;;;;;;;;;;1733460;83;21056;-74
2022/07/01 12:52:35;;;;;;;5.15;3.47;;;;;;;;;;1763549;81;21051;-73
2022/07/01 12:55:03;;;;;;;6.22;3.67;;;;;;;;;;1763166;80;20974;-73
2022/07/01 12:57:30;;;;;;;5.40;3.65;;;;;;;;;;1757960;81;21035;-74
2022/07/01 12:59:56;;;;;;;4.17;3.77;;;;;;;;;;1765631;81;21485;-74
2022/07/01 13:02:22;;;;;;;5.17;4.03;;;;;;;;;;1764394;80;21615;-74
2022/07/01 13:04:49;;;;;;;3.72;3.33;;;;;;;;;;1756942;80;21094;-73
2022/07/01 13:07:15;;;;;;;4.30;3.90;;;;;;;;;;1757022;81;21504;-72
2022/07/01 13:09:42;;;;;;;4.83;4.33;;;;;;;;;;1753429;81;21017;-74
2022/07/01 13:12:08;;;;;;;4.30;3.47;;;;;;;;;;1758873;81;21037;-72
2022/07/01 13:14:34;;;;;;;4.72;3.62;;;;;;;;;;1762742;81;21082;-70
2022/07/01 13:17:02;;;;;;;4.12;3.30;;;;;;;;;;1763377;81;22241;-71
2022/07/01 13:19:28;;;;;;;5.60;3.77;;;;;;;;;;1763032;81;22068;-70
2022/07/01 13:21:54;;;;;;;4.30;3.45;;;;;;;;;;1758203;80;21027;-81
2022/07/01 13:24:21;;;;;;;3.65;3.05;;;;;;;;;;1767833;81;21061;-79
2022/07/01 13:26:48;;;;;;;4.15;3.75;;;;;;;;;;1759272;80;21570;-79
2022/07/01 13:29:14;;;;;;;21.33;19.17;;;;;;;;;;1756349;81;21584;-75
2022/07/01 13:31:40;;;;;;;23.95;21.48;;;;;;;;;;1756669;80;21032;-71
2022/07/01 13:34:07;;;;;;;14.15;12.73;;;;;;;;;;1744887;81;21093;-71
2022/07/01 13:36:33;;;;;;;6.75;5.15;;;;;;;;;;1738589;81;21591;-72
2022/07/01 13:38:59;;;;;;;5.35;3.58;;;;;;;;;;1753239;80;21044;-73
2022/07/01 13:41:25;;;;;;;5.33;4.37;;;;;;;;;;1759859;81;21073;-73
2022/07/01 13:43:51;;;;;;;6.15;5.22;;;;;;;;;;1764001;81;22216;-72
2022/07/01 13:46:17;;;;;;;6.92;5.22;;;;;;;;;;1762000;80;21007;-73
2022/07/01 13:48:43;;;;;;;4.72;4.00;;;;;;;;;;1754831;82;21028;-70
2022/07/01 13:51:11;;;;;;;5.47;4.10;;;;;;;;;;1753171;81;21068;-71
2022/07/01 13:53:37;;;;;;;9.13;8.20;;;;;;;;;;1763630;81;21100;-74
2022/07/01 13:56:04;;;;;;;18.60;15.20;;;;;;;;;;1763287;81;21057;-74
2022/07/01 13:58:29;;;;;;;20.72;18.73;;;;;;;;;;1763761;81;21026;-74
2022/07/01 14:00:56;;;;;;;9.65;5.10;;;;;;;;;;1761454;80;21621;-74
2022/07/01 14:03:22;;;;;;;4.37;3.25;;;;;;;;;;1752846;81;20950;-72
2022/07/01 14:05:49;;;;;;;5.97;3.92;;;;;;;;;;1758479;80;21037;-75
2022/07/01 14:08:15;;;;;;;4.10;3.15;;;;;;;;;;1760396;81;20997;-71
2022/07/01 14:10:43;;;;;;;6.12;3.62;;;;;;;;;;1762680;81;21593;-72
2022/07/01 14:13:09;;;;;;;5.78;3.33;;;;;;;;;;1763594;81;21013;-75
2022/07/01 14:15:35;;;;;;;3.85;3.12;;;;;;;;;;1761731;81;21001;-73
2022/07/01 14:18:02;;;;;;;7.30;3.58;;;;;;;;;;1763565;81;21022;-75
2022/07/01 14:20:28;;;;;;;4.55;3.20;;;;;;;;;;1762280;80;21152;-72
2022/07/01 14:22:54;;;;;;;12.05;3.42;;;;;;;;;;1762239;81;21005;-72
2022/07/01 14:25:21;;;;;;;8.58;3.62;;;;;;;;;;1730505;81;21618;-73
2022/07/01 14:27:48;;;;;;;5.42;3.22;;;;;;;;;;1716881;82;21006;-78
2022/07/01 14:30:16;;;;;;;4.35;3.92;;;;;;;;;;1750262;81;21005;-74
2022/07/01 14:32:43;;;;;;;7.30;6.03;;;;;;;;;;1669646;84;21050;-74
2022/07/01 14:35:09;;;;;;;3.67;3.27;;;;;;;;;;1752473;81;21643;-73
2022/07/01 14:37:36;;;;;;;4.28;3.02;;;;;;;;;;1753852;80;21001;-73
2022/07/01 14:40:03;;;;;;;3.72;2.77;;;;;;;;;;1749264;81;20954;-73
2022/07/01 14:42:31;;;;;;;5.47;3.05;;;;;;;;;;1699828;82;21094;-72
2022/07/01 14:44:57;;;;;;;5.05;2.80;;;;;;;;;;1699578;82;21015;-72
2022/07/01 14:47:23;;;;;;;3.22;2.92;;;;;;;;;;1697654;82;21051;-73
2022/07/01 14:49:51;;;;;;;4.90;2.90;;;;;;;;;;1748197;81;21017;-73
2022/07/01 14:52:17;;;;;;;3.90;3.08;;;;;;;;;;1740623;81;21080;-75
2022/07/01 14:54:44;;;;;;;4.85;3.20;;;;;;;;;;1673833;84;21541;-76
2022/07/01 14:57:10;;;;;;;5.33;3.30;;;;;;;;;;1698244;84;21069;-76
2022/07/01 14:59:36;;;;;;;4.12;2.92;;;;;;;;;;1683074;83;22344;-74
2022/07/01 15:02:03;;;;;;;7.67;3.00;;;;;;;;;;1699061;84;20978;-75